Time;durP1;ratioP1;P1;durP2;ratioP2;P2;SDS_P1;SDS_P2;PMS_P1;PMS_P2;Temp;Humidity;BMP_temperature;BMP_pressure;BME280_temperature;BME280_humidity;BME280_pressure;Samples;Min_cycle;Max_cycle;Signal;HPM_P1;HPM_P2
2023/06/19 00:01:18;;;;;;;5.13;4.07;;;24.50;55.30;;;;;;6009595;23;20011;-81
2023/06/19 00:03:43;;;;;;;5.05;4.55;;;24.50;55.00;;;;;;6033374;23;20088;-81
2023/06/19 00:06:09;;;;;;;4.97;4.53;;;24.50;56.00;;;;;;6008400;23;20015;-82
2023/06/19 00:08:36;;;;;;;4.68;4.20;;;24.40;55.10;;;;;;6009441;23;20469;-79
2023/06/19 00:11:02;;;;;;;4.85;4.35;;;24.30;55.00;;;;;;6009551;23;20747;-80
2023/06/19 00:13:27;;;;;;;5.03;4.63;;;24.30;54.90;;;;;;6010642;23;20018;-80
2023/06/19 00:15:53;;;;;;;4.63;4.18;;;24.20;55.60;;;;;;6033253;23;20033;-80
2023/06/19 00:18:19;;;;;;;5.40;4.72;;;24.10;55.00;;;;;;6011262;23;20011;-80
2023/06/19 00:20:45;;;;;;;8.02;4.43;;;24.10;55.30;;;;;;6059242;23;20653;-80
2023/06/19 00:23:13;;;;;;;5.90;5.30;;;23.90;54.50;;;;;;6011266;23;20442;-80
2023/06/19 00:25:40;;;;;;;4.97;4.45;;;23.90;54.50;;;;;;6034082;23;20035;-80
2023/06/19 00:28:11;;;;;;;5.40;4.88;;;23.80;54.80;;;;;;6034725;23;20549;-80
2023/06/19 00:30:37;;;;;;;4.70;4.30;;;23.70;54.20;;;;;;6011507;23;20021;-80
2023/06/19 00:33:03;;;;;;;5.05;4.65;;;23.60;54.70;;;;;;6034024;23;20019;-80
2023/06/19 00:35:28;;;;;;;6.55;5.18;;;23.60;54.80;;;;;;6009657;23;20513;-79
2023/06/19 00:37:54;;;;;;;5.47;4.97;;;23.50;54.50;;;;;;6057645;23;20013;-80
2023/06/19 00:40:29;;;;;;;5.28;4.78;;;23.50;55.00;;;;;;6010590;23;20497;-80
2023/06/19 00:42:55;;;;;;;;;;;23.40;55.10;;;;;;6010522;23;20014;-80
2023/06/19 00:45:21;;;;;;;4.70;4.30;;;23.40;55.10;;;;;;6059365;23;19922;-80
2023/06/19 00:47:46;;;;;;;5.68;5.10;;;23.40;55.90;;;;;;6011107;23;20390;-80
2023/06/19 00:50:12;;;;;;;5.75;5.15;;;23.30;54.80;;;;;;6010724;23;20019;-80
2023/06/19 00:52:38;;;;;;;6.30;5.43;;;23.20;56.00;;;;;;6034738;23;20315;-80
2023/06/19 00:55:04;;;;;;;7.57;5.20;;;23.20;56.90;;;;;;6033586;23;20067;-80
2023/06/19 00:57:31;;;;;;;4.50;4.10;;;23.20;55.80;;;;;;6033951;23;20015;-80
2023/06/19 00:59:58;;;;;;;6.00;4.93;;;23.10;56.60;;;;;;6010629;23;20023;-80
2023/06/19 01:02:27;;;;;;;5.38;4.88;;;23.10;57.30;;;;;;6010322;23;20015;-80
2023/06/19 01:04:53;;;;;;;4.93;4.00;;;23.00;57.40;;;;;;6034266;23;20078;-80
2023/06/19 01:07:31;;;;;;;5.15;4.65;;;22.90;56.90;;;;;;6010613;23;20367;-80
2023/06/19 01:10:04;;;;;;;5.45;4.95;;;22.90;56.70;;;;;;6010820;23;20327;-80
2023/06/19 01:12:37;;;;;;;5.53;4.95;;;22.90;56.10;;;;;;6034523;23;20034;-80
2023/06/19 01:15:05;;;;;;;6.72;4.93;;;22.80;56.20;;;;;;6010683;23;20461;-80
2023/06/19 01:17:30;;;;;;;5.80;5.10;;;22.80;56.20;;;;;;6010236;23;20019;-80
2023/06/19 01:19:58;;;;;;;4.80;4.40;;;22.70;56.80;;;;;;6010235;23;20105;-80
2023/06/19 01:22:30;;;;;;;4.78;4.22;;;22.80;57.40;;;;;;6033976;23;20011;-80
2023/06/19 01:24:55;;;;;;;5.18;4.72;;;22.70;56.80;;;;;;6010029;23;20011;-80
2023/06/19 01:27:22;;;;;;;4.65;4.22;;;22.70;57.00;;;;;;6033492;23;20532;-80
2023/06/19 01:29:47;;;;;;;5.43;4.28;;;22.60;57.50;;;;;;6034447;23;20015;-80
2023/06/19 01:32:19;;;;;;;4.88;4.38;;;22.50;56.80;;;;;;6010511;23;20082;-80
2023/06/19 01:34:44;;;;;;;5.03;4.53;;;22.60;56.60;;;;;;6011018;23;20015;-80
2023/06/19 01:37:10;;;;;;;5.57;5.00;;;22.60;57.80;;;;;;6033099;23;20078;-80
2023/06/19 01:39:36;;;;;;;6.05;4.85;;;22.40;58.80;;;;;;6010453;23;20017;-80
2023/06/19 01:42:02;;;;;;;5.18;4.15;;;22.50;58.80;;;;;;6010033;23;20081;-80
2023/06/19 01:44:27;;;;;;;5.70;4.30;;;22.40;58.60;;;;;;6009304;23;20018;-80
2023/06/19 01:46:53;;;;;;;5.57;5.07;;;22.30;58.30;;;;;;6057149;23;20018;-80
2023/06/19 01:49:19;;;;;;;5.32;4.80;;;22.30;58.00;;;;;;6010772;23;20011;-80
2023/06/19 01:51:44;;;;;;;9.88;5.38;;;22.20;58.90;;;;;;6010232;23;20007;-80
2023/06/19 01:54:10;;;;;;;9.00;4.75;;;22.20;61.20;;;;;;6033812;23;20003;-81
2023/06/19 01:56:37;;;;;;;4.30;4.00;;;22.10;58.70;;;;;;6009963;23;20023;-81
2023/06/19 01:59:03;;;;;;;5.05;4.57;;;22.10;58.80;;;;;;6033831;23;20022;-81
2023/06/19 02:01:28;;;;;;;4.85;4.43;;;22.20;58.60;;;;;;6034138;23;20062;-81
2023/06/19 02:03:54;;;;;;;6.00;4.95;;;22.10;60.90;;;;;;6033724;23;20011;-80
2023/06/19 02:06:21;;;;;;;5.70;5.00;;;22.10;59.30;;;;;;6009120;23;20026;-81
2023/06/19 02:08:47;;;;;;;5.88;4.72;;;22.10;59.40;;;;;;6010915;23;20018;-79
2023/06/19 02:11:12;;;;;;;4.93;4.20;;;22.10;61.90;;;;;;6057560;23;20010;-80
2023/06/19 02:13:38;;;;;;;5.47;4.97;;;22.00;60.40;;;;;;6009591;23;20204;-79
2023/06/19 02:16:04;;;;;;;5.10;4.60;;;22.10;61.40;;;;;;6033237;23;20022;-79
2023/06/19 02:18:29;;;;;;;4.53;4.13;;;22.10;61.10;;;;;;6033426;23;20386;-80
2023/06/19 02:20:55;;;;;;;5.93;4.90;;;22.10;60.30;;;;;;6009415;23;20029;-80
2023/06/19 02:23:20;;;;;;;5.20;4.18;;;22.00;60.70;;;;;;6009482;23;20533;-80
2023/06/19 02:25:46;;;;;;;5.60;5.05;;;22.00;60.30;;;;;;6010185;23;20022;-80
2023/06/19 02:28:11;;;;;;;5.88;5.00;;;22.00;60.60;;;;;;6008582;23;20023;-80
2023/06/19 02:30:37;;;;;;;4.70;4.30;;;22.10;62.30;;;;;;6033958;23;20023;-80
2023/06/19 02:33:02;;;;;;;5.15;4.65;;;22.00;60.90;;;;;;6057213;23;20604;-80
2023/06/19 02:35:28;;;;;;;4.97;4.47;;;22.00;60.10;;;;;;6009196;23;20034;-80
2023/06/19 02:37:53;;;;;;;4.78;4.38;;;22.10;61.40;;;;;;6008999;23;20018;-80
2023/06/19 02:40:19;;;;;;;6.22;4.78;;;22.20;60.30;;;;;;6010403;23;20089;-80
2023/06/19 02:42:45;;;;;;;4.32;3.88;;;22.20;60.60;;;;;;6033479;23;20019;-80
2023/06/19 02:45:10;;;;;;;6.22;4.25;;;22.30;60.60;;;;;;6009528;23;20023;-79
2023/06/19 02:47:36;;;;;;;4.72;4.28;;;22.30;60.30;;;;;;6009518;23;20014;-79
2023/06/19 02:50:03;;;;;;;5.18;4.68;;;22.30;60.00;;;;;;6033524;23;20030;-79
2023/06/19 02:52:28;;;;;;;4.57;4.03;;;22.40;60.90;;;;;;6009770;23;20455;-79
2023/06/19 02:54:54;;;;;;;4.93;4.43;;;22.40;60.60;;;;;;6009204;23;20030;-80
2023/06/19 02:57:19;;;;;;;5.88;4.80;;;22.50;61.10;;;;;;6033070;23;20700;-79
2023/06/19 02:59:45;;;;;;;7.28;4.80;;;22.40;61.00;;;;;;6009632;23;20341;-80
2023/06/19 03:02:11;;;;;;;4.75;4.13;;;22.40;61.30;;;;;;6033191;23;20449;-80
2023/06/19 03:04:36;;;;;;;5.88;4.75;;;22.40;61.10;;;;;;6008977;23;20341;-80
2023/06/19 03:07:02;;;;;;;5.30;4.80;;;22.40;62.00;;;;;;6032379;23;20026;-80
2023/06/19 03:09:28;;;;;;;4.75;4.32;;;22.50;62.20;;;;;;6009269;23;20007;-80
2023/06/19 03:11:54;;;;;;;9.27;5.40;;;22.50;62.70;;;;;;6032868;23;20078;-80
2023/06/19 03:14:20;;;;;;;5.38;4.88;;;22.50;63.00;;;;;;6010260;23;20054;-80
2023/06/19 03:16:45;;;;;;;4.93;3.90;;;22.50;63.20;;;;;;6009176;23;20011;-80
2023/06/19 03:19:11;;;;;;;4.55;4.15;;;22.50;63.50;;;;;;6032861;23;20090;-80
2023/06/19 03:21:37;;;;;;;3.78;3.17;;;22.50;63.50;;;;;;6033328;23;20034;-81
2023/06/19 03:24:03;;;;;;;4.90;3.92;;;22.50;63.40;;;;;;6032709;23;20029;-81
2023/06/19 03:26:28;;;;;;;4.70;4.28;;;22.50;64.60;;;;;;6032213;23;20062;-80
2023/06/19 03:28:54;;;;;;;4.50;3.47;;;22.60;64.20;;;;;;6031820;23;20042;-80
2023/06/19 03:31:19;;;;;;;6.75;3.70;;;22.50;64.80;;;;;;6033599;23;20425;-80
2023/06/19 03:33:45;;;;;;;4.57;4.13;;;22.40;63.90;;;;;;6009323;23;20323;-80
2023/06/19 03:36:11;;;;;;;7.30;3.80;;;22.40;64.40;;;;;;6032382;23;20018;-80
2023/06/19 03:38:36;;;;;;;5.97;4.03;;;22.40;64.50;;;;;;6032456;23;20038;-80
2023/06/19 03:41:02;;;;;;;3.78;3.28;;;22.40;64.60;;;;;;6032663;23;20019;-80
2023/06/19 03:43:27;;;;;;;4.47;3.65;;;22.40;64.20;;;;;;6008724;23;20022;-80
2023/06/19 03:45:53;;;;;;;4.38;3.97;;;22.40;64.40;;;;;;6033617;23;20019;-80
2023/06/19 03:48:18;;;;;;;4.95;4.13;;;22.30;64.70;;;;;;6011072;23;20018;-79
2023/06/19 03:50:44;;;;;;;4.43;3.83;;;22.40;66.70;;;;;;6010652;23;20011;-79
2023/06/19 03:53:09;;;;;;;4.32;3.65;;;22.30;65.20;;;;;;6034419;23;20018;-79
2023/06/19 03:55:35;;;;;;;3.83;2.95;;;22.20;64.90;;;;;;6010465;23;20419;-79
2023/06/19 03:58:01;;;;;;;3.03;1.90;;;22.20;65.90;;;;;;6010616;23;20018;-79
2023/06/19 04:00:26;;;;;;;3.08;2.83;;;22.20;66.80;;;;;;6034875;23;20085;-80
2023/06/19 04:02:52;;;;;;;3.53;3.17;;;22.20;66.50;;;;;;6011428;23;20015;-81
2023/06/19 04:05:17;;;;;;;2.92;2.63;;;22.20;66.40;;;;;;6010804;23;20343;-81
2023/06/19 04:07:43;;;;;;;3.83;2.65;;;22.20;66.80;;;;;;6010995;23;20019;-80
2023/06/19 04:10:11;;;;;;;5.00;3.45;;;22.10;66.50;;;;;;6010950;23;20094;-81
2023/06/19 04:12:37;;;;;;;4.03;2.70;;;22.20;66.40;;;;;;6034051;23;20014;-81
2023/06/19 04:15:02;;;;;;;3.15;2.85;;;22.20;67.20;;;;;;6010584;23;20066;-81
2023/06/19 04:17:28;;;;;;;4.70;2.45;;;22.10;67.10;;;;;;6010583;23;20007;-80
2023/06/19 04:19:54;;;;;;;3.65;3.17;;;22.20;66.90;;;;;;6034246;23;20019;-81
2023/06/19 04:22:19;;;;;;;4.25;2.90;;;22.20;67.00;;;;;;6035406;23;20026;-81
2023/06/19 04:24:45;;;;;;;2.92;2.63;;;22.20;67.50;;;;;;6034372;23;20046;-80
2023/06/19 04:27:10;;;;;;;4.05;2.83;;;22.30;68.00;;;;;;6009659;23;20019;-81
2023/06/19 04:29:36;;;;;;;6.07;2.55;;;22.30;67.50;;;;;;6034616;23;20007;-80
2023/06/19 04:32:10;;;;;;;5.03;2.97;;;22.30;67.70;;;;;;6033482;23;20073;-80
2023/06/19 04:34:36;;;;;;;4.28;1.67;;;22.30;68.10;;;;;;6011975;23;20050;-80
2023/06/19 04:37:02;;;;;;;3.45;1.95;;;22.30;67.40;;;;;;6034305;23;20002;-81
2023/06/19 04:39:27;;;;;;;3.45;2.72;;;22.40;67.60;;;;;;6008375;23;20006;-80
2023/06/19 04:41:53;;;;;;;3.15;2.75;;;22.40;67.80;;;;;;6010394;23;20007;-80
2023/06/19 04:44:18;;;;;;;3.45;2.17;;;22.40;67.10;;;;;;6032859;23;20027;-81
2023/06/19 04:46:44;;;;;;;3.22;2.92;;;22.40;68.00;;;;;;6033077;23;20010;-80
2023/06/19 04:49:10;;;;;;;2.65;1.90;;;22.30;68.40;;;;;;6010373;23;20434;-80
2023/06/19 04:51:35;;;;;;;2.90;2.53;;;22.30;68.40;;;;;;6010755;23;20015;-80
2023/06/19 04:54:01;;;;;;;2.58;2.38;;;22.30;69.30;;;;;;6010493;23;20019;-80
2023/06/19 04:56:27;;;;;;;2.58;2.28;;;22.30;68.30;;;;;;6009696;23;20066;-80
2023/06/19 04:58:55;;;;;;;3.15;2.85;;;22.40;68.60;;;;;;6010917;23;20374;-81
2023/06/19 05:01:27;;;;;;;2.63;2.38;;;22.40;69.00;;;;;;6010747;23;20007;-80
2023/06/19 05:03:54;;;;;;;5.32;2.35;;;22.40;68.00;;;;;;6035802;23;20007;-82
2023/06/19 05:06:21;;;;;;;2.25;1.98;;;22.50;68.70;;;;;;6063559;23;20350;-78
2023/06/19 05:08:47;;;;;;;3.10;2.58;;;22.50;68.40;;;;;;5987085;23;20011;-81
2023/06/19 05:11:13;;;;;;;3.83;2.47;;;22.50;68.10;;;;;;6010407;23;20029;-80
2023/06/19 05:13:38;;;;;;;2.75;2.30;;;22.60;68.00;;;;;;5987388;23;20011;-81
2023/06/19 05:16:04;;;;;;;1.85;1.50;;;22.50;68.20;;;;;;6010233;23;20019;-80
2023/06/19 05:18:30;;;;;;;2.80;2.50;;;22.50;68.60;;;;;;6010548;23;20018;-79
2023/06/19 05:20:55;;;;;;;2.45;2.20;;;22.50;68.10;;;;;;5986764;23;20375;-80
2023/06/19 05:23:21;;;;;;;3.13;2.28;;;22.50;67.50;;;;;;6010823;23;20015;-80
2023/06/19 05:25:46;;;;;;;3.85;1.83;;;22.50;68.40;;;;;;6010248;23;20438;-80
2023/06/19 05:28:12;;;;;;;3.78;2.03;;;22.50;68.20;;;;;;5986509;23;20349;-80
2023/06/19 05:30:39;;;;;;;4.88;2.40;;;22.50;67.90;;;;;;6058330;23;20019;-79
2023/06/19 05:33:04;;;;;;;2.95;2.35;;;22.50;67.10;;;;;;5986107;23;20026;-79
2023/06/19 05:35:30;;;;;;;2.72;2.45;;;22.60;67.30;;;;;;5985735;23;20010;-79
2023/06/19 05:37:56;;;;;;;4.95;2.72;;;22.70;67.30;;;;;;6033943;23;20026;-78
2023/06/19 05:40:21;;;;;;;3.30;2.17;;;22.70;67.20;;;;;;5987772;23;20022;-79
2023/06/19 05:42:47;;;;;;;2.20;2.00;;;22.80;67.00;;;;;;6034202;23;20441;-78
2023/06/19 05:45:12;;;;;;;3.10;2.45;;;22.70;68.20;;;;;;5985720;23;20019;-79
2023/06/19 05:47:38;;;;;;;3.75;1.90;;;22.80;68.50;;;;;;5986139;23;20315;-79
2023/06/19 05:50:04;;;;;;;3.25;2.00;;;22.90;68.00;;;;;;6009635;23;20034;-79
2023/06/19 05:52:30;;;;;;;3.17;1.70;;;22.90;67.90;;;;;;6010146;23;20062;-80
2023/06/19 05:54:55;;;;;;;2.20;1.85;;;23.00;67.90;;;;;;5986432;23;20545;-79
2023/06/19 05:57:21;;;;;;;2.45;2.10;;;23.00;68.00;;;;;;6008120;23;20007;-79
2023/06/19 05:59:47;;;;;;;3.65;2.20;;;23.10;67.50;;;;;;6008648;23;20378;-80
2023/06/19 06:02:13;;;;;;;3.42;1.95;;;23.10;67.60;;;;;;6010140;23;20027;-79
2023/06/19 06:04:39;;;;;;;2.47;1.73;;;23.20;68.00;;;;;;6010337;23;20021;-80
2023/06/19 06:07:05;;;;;;;3.58;2.65;;;23.10;68.50;;;;;;6008996;23;20019;-80
2023/06/19 06:09:30;;;;;;;2.70;2.40;;;23.20;67.80;;;;;;6009269;23;20011;-80
2023/06/19 06:11:56;;;;;;;3.35;1.73;;;23.40;67.20;;;;;;5985427;23;20014;-79
2023/06/19 06:14:23;;;;;;;4.93;1.98;;;23.40;67.00;;;;;;6009369;23;20093;-80
2023/06/19 06:16:48;;;;;;;2.50;2.10;;;23.40;67.30;;;;;;6009419;23;20018;-80
2023/06/19 06:19:14;;;;;;;2.55;2.00;;;23.20;68.30;;;;;;6008646;23;20019;-80
2023/06/19 06:21:40;;;;;;;2.50;2.30;;;23.40;67.60;;;;;;6019396;23;20054;-79
2023/06/19 06:24:06;;;;;;;2.63;2.08;;;23.50;68.40;;;;;;6030687;23;20013;-79
2023/06/19 06:26:33;;;;;;;3.28;2.10;;;23.50;67.90;;;;;;6055013;23;20038;-80
2023/06/19 06:28:59;;;;;;;2.08;1.88;;;23.50;68.70;;;;;;6056547;23;20026;-80
2023/06/19 06:31:24;;;;;;;2.47;1.80;;;23.80;67.20;;;;;;6056719;23;20007;-78
2023/06/19 06:33:50;;;;;;;2.40;2.20;;;23.90;66.60;;;;;;6033934;23;20017;-80
2023/06/19 06:36:17;;;;;;;8.20;2.17;;;24.20;67.00;;;;;;6056655;23;20011;-80
2023/06/19 06:38:42;;;;;;;2.22;2.00;;;24.20;66.70;;;;;;6057178;23;20042;-79
2023/06/19 06:41:11;;;;;;;7.28;2.00;;;24.20;66.80;;;;;;6033244;23;20022;-79
2023/06/19 06:43:38;;;;;;;3.63;2.00;;;24.40;66.30;;;;;;6031903;23;20042;-80
2023/06/19 06:46:04;;;;;;;3.70;2.03;;;24.50;66.20;;;;;;6032860;23;20043;-80
2023/06/19 06:48:30;;;;;;;2.25;2.00;;;24.50;65.60;;;;;;6057180;23;20015;-79
2023/06/19 06:51:01;;;;;;;3.10;1.80;;;24.70;65.60;;;;;;6056955;23;20707;-80
2023/06/19 06:53:27;;;;;;;2.13;1.92;;;24.70;65.40;;;;;;6033742;23;20015;-79
2023/06/19 06:55:53;;;;;;;2.25;2.05;;;24.80;65.40;;;;;;6058502;23;20245;-79
2023/06/19 06:58:19;;;;;;;3.25;1.95;;;24.70;65.30;;;;;;6055984;23;20185;-80
2023/06/19 07:00:45;;;;;;;3.25;2.25;;;24.70;65.60;;;;;;6056820;23;20022;-80
2023/06/19 07:03:11;;;;;;;3.63;2.30;;;24.70;65.00;;;;;;6056609;23;20481;-80
2023/06/19 07:05:36;;;;;;;2.20;2.00;;;24.60;65.50;;;;;;6032226;23;20025;-79
2023/06/19 07:08:03;;;;;;;3.38;2.20;;;24.50;66.10;;;;;;6033256;23;20019;-79
2023/06/19 07:10:30;;;;;;;2.15;1.90;;;24.50;65.70;;;;;;6009082;23;20534;-79
2023/06/19 07:12:55;;;;;;;3.45;2.25;;;24.70;65.30;;;;;;6058099;23;20018;-79
2023/06/19 07:15:21;;;;;;;3.83;1.88;;;24.50;65.40;;;;;;6033120;23;20015;-79
2023/06/19 07:17:46;;;;;;;1.83;1.63;;;24.70;64.90;;;;;;6056562;23;20017;-79
2023/06/19 07:20:12;;;;;;;2.85;2.20;;;24.60;65.00;;;;;;6057323;23;20357;-79
2023/06/19 07:22:38;;;;;;;7.82;2.05;;;24.50;65.20;;;;;;6058352;23;20094;-79
2023/06/19 07:25:04;;;;;;;2.10;1.98;;;24.30;65.80;;;;;;6058502;23;20466;-80
2023/06/19 07:27:30;;;;;;;1.98;1.73;;;24.40;65.70;;;;;;6034567;23;20015;-79
2023/06/19 07:29:56;;;;;;;2.17;1.90;;;24.40;65.50;;;;;;6058967;23;20021;-80
2023/06/19 07:32:22;;;;;;;2.65;1.92;;;24.60;65.80;;;;;;6035346;23;20477;-80
2023/06/19 07:34:48;;;;;;;3.58;2.17;;;24.50;65.70;;;;;;6035273;23;20011;-80
2023/06/19 07:37:20;;;;;;;3.75;1.98;;;24.40;65.20;;;;;;6058310;23;20014;-79
2023/06/19 07:39:46;;;;;;;5.05;2.53;;;24.10;67.70;;;;;;6058200;23;20011;-79
2023/06/19 07:42:13;;;;;;;3.90;1.95;;;24.00;68.20;;;;;;6058657;23;20015;-79
2023/06/19 07:44:38;;;;;;;2.13;1.90;;;24.00;67.20;;;;;;6034869;23;20007;-78
2023/06/19 07:47:04;;;;;;;2.90;1.48;;;24.00;67.70;;;;;;6058733;23;20015;-79
2023/06/19 07:49:30;;;;;;;3.17;1.75;;;24.00;67.40;;;;;;6011046;23;20121;-79
2023/06/19 07:51:55;;;;;;;2.42;2.03;;;24.10;67.60;;;;;;6035588;23;20019;-79
2023/06/19 07:54:21;;;;;;;3.30;2.35;;;24.00;67.80;;;;;;6034389;23;20011;-79
2023/06/19 07:56:46;;;;;;;1.60;1.45;;;24.10;67.80;;;;;;6034182;23;20011;-79
2023/06/19 07:59:13;;;;;;;3.67;2.08;;;24.20;67.80;;;;;;6034931;23;20449;-79
2023/06/19 08:01:39;;;;;;;4.55;2.10;;;24.40;67.60;;;;;;6058485;23;20509;-79
2023/06/19 08:04:05;;;;;;;2.65;2.15;;;24.70;66.70;;;;;;6058450;23;20010;-79
2023/06/19 08:06:31;;;;;;;3.78;2.08;;;24.90;66.70;;;;;;6058360;23;20079;-79
2023/06/19 08:08:56;;;;;;;3.92;2.03;;;25.00;67.50;;;;;;6059001;23;20156;-79
2023/06/19 08:11:22;;;;;;;2.28;1.83;;;25.40;66.90;;;;;;6034418;23;20039;-79
2023/06/19 08:13:48;;;;;;;4.40;2.45;;;25.60;65.70;;;;;;6059117;23;20018;-79
2023/06/19 08:16:13;;;;;;;7.13;2.45;;;26.00;66.40;;;;;;6057737;23;20354;-79
2023/06/19 08:18:39;;;;;;;2.90;1.88;;;26.50;65.80;;;;;;6054980;23;20346;-78
2023/06/19 08:21:06;;;;;;;5.72;3.08;;;26.80;64.80;;;;;;6058485;23;20022;-79
2023/06/19 08:23:31;;;;;;;2.28;2.08;;;27.10;65.10;;;;;;6058144;23;20729;-80
2023/06/19 08:25:57;;;;;;;2.55;1.85;;;27.40;62.90;;;;;;6058511;23;20078;-80
2023/06/19 08:28:23;;;;;;;2.63;1.90;;;27.30;63.10;;;;;;6034440;23;20010;-79
2023/06/19 08:30:49;;;;;;;3.13;1.88;;;27.20;62.20;;;;;;6034487;23;20015;-79
2023/06/19 08:33:14;;;;;;;2.10;1.52;;;26.80;62.40;;;;;;6057331;23;20018;-79
2023/06/19 08:35:40;;;;;;;2.83;1.45;;;26.70;62.90;;;;;;6034492;23;20011;-79
2023/06/19 08:38:06;;;;;;;2.13;1.42;;;26.90;63.60;;;;;;6034220;23;20019;-79
2023/06/19 08:40:32;;;;;;;2.50;1.77;;;27.10;62.00;;;;;;6034183;23;20075;-79
2023/06/19 08:42:57;;;;;;;1.35;1.25;;;27.20;62.40;;;;;;6033759;23;20018;-79
2023/06/19 08:45:25;;;;;;;2.60;1.73;;;27.40;60.80;;;;;;6058885;23;20022;-79
2023/06/19 08:47:51;;;;;;;2.30;1.38;;;27.20;61.50;;;;;;6057694;23;20019;-79
2023/06/19 08:50:16;;;;;;;2.63;1.38;;;27.20;60.90;;;;;;6034156;23;21175;-80
2023/06/19 08:52:42;;;;;;;3.75;1.90;;;27.00;61.80;;;;;;6033577;23;20445;-80
2023/06/19 08:55:08;;;;;;;1.88;1.63;;;27.40;60.60;;;;;;6034083;23;20015;-80
2023/06/19 08:57:35;;;;;;;2.00;1.55;;;27.50;60.90;;;;;;6057634;23;20050;-79
2023/06/19 09:00:00;;;;;;;1.98;1.80;;;27.20;60.30;;;;;;6058525;23;20018;-79
2023/06/19 09:02:36;;;;;;;3.65;1.85;;;27.80;61.10;;;;;;6058675;23;20011;-79
2023/06/19 09:05:18;;;;;;;2.45;1.85;;;28.30;60.70;;;;;;6034319;23;20027;-80
2023/06/19 09:07:44;;;;;;;2.67;1.90;;;28.70;58.40;;;;;;6058202;23;20457;-79
2023/06/19 09:10:15;;;;;;;3.38;2.00;;;28.80;59.30;;;;;;6058040;23;20033;-79
2023/06/19 09:12:43;;;;;;;2.88;1.83;;;29.30;59.20;;;;;;6034469;23;20011;-79
2023/06/19 09:15:13;;;;;;;1.80;1.70;;;28.60;57.70;;;;;;6033955;23;20023;-79
2023/06/19 09:17:38;;;;;;;1.50;1.40;;;28.60;59.20;;;;;;6034161;23;20041;-79
2023/06/19 09:20:05;;;;;;;2.28;2.08;;;29.60;57.90;;;;;;6058036;23;20026;-80
2023/06/19 09:22:31;;;;;;;3.13;2.35;;;29.70;56.90;;;;;;6033409;23;20066;-79
2023/06/19 09:25:00;;;;;;;5.68;1.67;;;29.90;57.90;;;;;;6058585;23;20034;-80
2023/06/19 09:27:31;;;;;;;2.00;1.80;;;30.10;56.70;;;;;;6033976;23;20014;-79
2023/06/19 09:29:56;;;;;;;5.57;2.42;;;30.00;55.90;;;;;;6034374;23;20101;-79
2023/06/19 09:32:23;;;;;;;2.67;2.00;;;30.20;56.60;;;;;;6057327;23;20036;-79
2023/06/19 09:34:50;;;;;;;2.60;2.08;;;30.70;56.20;;;;;;6034109;23;20038;-79
2023/06/19 09:37:34;;;;;;;3.05;1.77;;;30.50;54.70;;;;;;6033548;23;20018;-79
2023/06/19 09:40:02;;;;;;;3.47;2.03;;;31.00;55.60;;;;;;6058216;23;20015;-80
2023/06/19 09:42:32;;;;;;;2.38;2.05;;;31.00;54.50;;;;;;6033744;23;20015;-80
2023/06/19 09:45:01;;;;;;;2.90;2.08;;;31.60;54.30;;;;;;6033925;23;20031;-79
2023/06/19 09:47:31;;;;;;;3.20;2.30;;;31.30;53.30;;;;;;6057548;23;20014;-80
2023/06/19 09:49:57;;;;;;;3.95;2.45;;;31.30;53.90;;;;;;6034897;23;20042;-80
2023/06/19 09:52:23;;;;;;;5.22;2.15;;;32.00;54.30;;;;;;6058011;23;20007;-81
2023/06/19 09:54:52;;;;;;;3.03;2.13;;;32.40;53.00;;;;;;6057735;23;20026;-79
2023/06/19 09:57:18;;;;;;;2.72;2.15;;;32.50;53.00;;;;;;6032367;23;20018;-80
2023/06/19 09:59:46;;;;;;;2.90;2.03;;;33.00;51.80;;;;;;6032666;23;20374;-80
2023/06/19 10:02:11;;;;;;;2.80;2.25;;;32.90;51.60;;;;;;6054392;23;20439;-79
2023/06/19 10:04:49;;;;;;;2.50;2.30;;;33.00;51.00;;;;;;6056176;23;20050;-79
2023/06/19 10:07:26;;;;;;;4.13;1.83;;;32.90;51.10;;;;;;6051926;23;20641;-80
2023/06/19 10:10:06;;;;;;;5.28;2.28;;;32.90;50.50;;;;;;6051779;23;20025;-80
2023/06/19 10:12:36;;;;;;;2.85;2.47;;;32.70;51.50;;;;;;6028650;23;20333;-80
2023/06/19 10:15:28;;;;;;;6.40;2.42;;;32.50;50.10;;;;;;6051461;23;20076;-80
2023/06/19 10:17:59;;;;;;;3.38;2.33;;;32.50;50.70;;;;;;6070243;23;20006;-80
2023/06/19 10:20:32;;;;;;;3.38;2.42;;;32.70;50.80;;;;;;6053543;23;20015;-81
2023/06/19 10:23:10;;;;;;;3.40;2.63;;;33.00;51.30;;;;;;6005573;23;20034;-80
2023/06/19 10:25:41;;;;;;;3.00;2.70;;;33.60;50.00;;;;;;6029738;23;20042;-80
2023/06/19 10:28:16;;;;;;;4.25;1.98;;;34.10;49.40;;;;;;6052841;23;20259;-80
2023/06/19 10:30:42;;;;;;;5.40;3.05;;;34.00;49.40;;;;;;6027510;23;20026;-80
2023/06/19 10:33:07;;;;;;;2.35;2.10;;;33.90;49.50;;;;;;6028619;23;20023;-82
2023/06/19 10:35:40;;;;;;;7.43;2.90;;;34.00;47.60;;;;;;6004967;23;20014;-82
2023/06/19 10:38:07;;;;;;;4.10;2.72;;;33.90;48.20;;;;;;6002828;23;20022;-80
2023/06/19 10:40:32;;;;;;;3.25;2.10;;;33.80;48.50;;;;;;6006567;23;20007;-81
2023/06/19 10:42:58;;;;;;;2.88;2.45;;;33.70;47.90;;;;;;6031823;23;20030;-80
2023/06/19 10:45:28;;;;;;;3.80;2.15;;;34.00;47.80;;;;;;6030940;23;20019;-80
2023/06/19 10:47:54;;;;;;;5.82;2.22;;;34.60;47.70;;;;;;6046615;23;20492;-81
2023/06/19 10:50:19;;;;;;;4.88;2.22;;;35.30;47.10;;;;;;6031990;23;20029;-81
2023/06/19 10:52:45;;;;;;;2.80;2.58;;;35.50;45.90;;;;;;6054197;23;20011;-82
2023/06/19 10:55:14;;;;;;;5.13;2.72;;;35.50;46.10;;;;;;6007701;23;20341;-83
2023/06/19 10:57:41;;;;;;;4.32;2.97;;;35.40;46.10;;;;;;6007591;23;20022;-82
2023/06/19 11:00:14;;;;;;;3.10;2.80;;;35.00;46.00;;;;;;6008082;23;20015;-82
2023/06/19 11:02:42;;;;;;;4.78;2.25;;;35.90;45.90;;;;;;6011255;23;20466;-82
2023/06/19 11:05:09;;;;;;;3.65;2.78;;;36.10;45.20;;;;;;6008968;23;20361;-84
2023/06/19 11:07:34;;;;;;;3.90;2.47;;;35.70;45.90;;;;;;6032127;23;20018;-82
2023/06/19 11:10:02;;;;;;;3.92;3.20;;;35.20;45.80;;;;;;6006928;23;20379;-82
2023/06/19 11:12:27;;;;;;;3.42;3.05;;;35.80;45.60;;;;;;6009922;23;20398;-84
2023/06/19 11:14:53;;;;;;;3.28;2.97;;;36.40;44.20;;;;;;6006607;23;20007;-84
2023/06/19 11:17:22;;;;;;;3.47;2.72;;;36.50;44.00;;;;;;6010567;23;20025;-85
2023/06/19 11:19:47;;;;;;;3.90;2.90;;;36.30;44.90;;;;;;5998035;23;20349;-84
2023/06/19 11:22:13;;;;;;;4.43;3.28;;;36.50;44.60;;;;;;6030939;23;20015;-84
2023/06/19 11:24:48;;;;;;;3.80;2.60;;;36.80;43.50;;;;;;6029829;23;20010;-84
2023/06/19 11:27:27;;;;;;;6.63;2.65;;;36.80;43.70;;;;;;6023411;23;20007;-84
2023/06/19 11:29:58;;;;;;;7.80;3.00;;;37.20;42.90;;;;;;6032151;23;20013;-84
2023/06/19 11:32:28;;;;;;;3.45;2.42;;;37.50;43.00;;;;;;6007640;23;20106;-84
2023/06/19 11:34:54;;;;;;;3.67;2.30;;;37.40;43.10;;;;;;6032614;23;20007;-84
2023/06/19 11:37:20;;;;;;;4.15;3.05;;;36.50;42.80;;;;;;6031858;23;20061;-84
2023/06/19 11:39:47;;;;;;;8.18;3.67;;;36.50;44.10;;;;;;6032341;23;20034;-84
2023/06/19 11:42:13;;;;;;;3.90;3.10;;;37.10;43.20;;;;;;6032978;23;20449;-85
2023/06/19 11:45:06;;;;;;;4.63;2.75;;;37.60;42.10;;;;;;6008485;23;20350;-84
2023/06/19 11:47:32;;;;;;;5.32;3.38;;;37.70;42.00;;;;;;6031526;23;20015;-83
2023/06/19 11:49:57;;;;;;;3.08;2.70;;;37.60;41.60;;;;;;6008852;23;20026;-84
2023/06/19 11:52:23;;;;;;;3.13;2.90;;;37.70;41.30;;;;;;6030297;23;20077;-84
2023/06/19 11:54:49;;;;;;;3.80;3.08;;;37.90;41.30;;;;;;6008114;23;20011;-84
2023/06/19 11:57:14;;;;;;;4.93;2.40;;;37.80;41.50;;;;;;6030609;23;20505;-84
2023/06/19 11:59:40;;;;;;;3.38;2.75;;;38.10;40.90;;;;;;6007976;23;20014;-83
2023/06/19 12:02:06;;;;;;;7.15;3.30;;;38.30;40.50;;;;;;6031454;23;20350;-83
2023/06/19 12:04:33;;;;;;;3.83;2.75;;;38.20;40.30;;;;;;6006028;23;20018;-83
2023/06/19 12:06:59;;;;;;;3.72;3.20;;;38.20;40.80;;;;;;6033072;23;20347;-83
2023/06/19 12:09:30;;;;;;;3.17;2.88;;;38.30;40.70;;;;;;6032159;23;20061;-83
2023/06/19 12:11:56;;;;;;;5.80;3.55;;;38.40;40.40;;;;;;6009484;23;20458;-83
2023/06/19 12:14:21;;;;;;;3.85;3.47;;;38.50;38.90;;;;;;6031576;23;20026;-83
2023/06/19 12:16:47;;;;;;;3.45;3.15;;;38.30;39.20;;;;;;6009503;23;20035;-83
2023/06/19 12:19:13;;;;;;;4.20;3.45;;;38.40;39.20;;;;;;6032237;23;20019;-83
2023/06/19 12:21:38;;;;;;;3.72;2.90;;;38.30;39.50;;;;;;6007662;23;20098;-83
2023/06/19 12:24:04;;;;;;;3.42;3.13;;;38.30;39.70;;;;;;6032904;23;20031;-83
2023/06/19 12:26:30;;;;;;;3.35;2.70;;;38.40;39.30;;;;;;6010116;23;20019;-83
2023/06/19 12:28:55;;;;;;;6.07;3.50;;;38.20;40.80;;;;;;6008950;23;20021;-84
2023/06/19 12:31:21;;;;;;;3.03;2.80;;;38.30;39.40;;;;;;6009104;23;20031;-82
2023/06/19 12:33:48;;;;;;;3.65;3.35;;;38.40;39.90;;;;;;6032501;23;20101;-83
2023/06/19 12:36:14;;;;;;;5.60;3.80;;;38.10;40.30;;;;;;6007596;23;20070;-83
2023/06/19 12:38:40;;;;;;;5.30;3.42;;;38.20;40.40;;;;;;6029360;23;20007;-83
2023/06/19 12:41:06;;;;;;;2.88;2.67;;;38.50;39.30;;;;;;6005136;23;20025;-83
2023/06/19 12:43:31;;;;;;;3.25;2.90;;;38.70;40.10;;;;;;6028726;23;20438;-82
2023/06/19 12:45:59;;;;;;;3.72;3.40;;;38.80;39.60;;;;;;6006922;23;20074;-83